createdAt,value
2022-12-03T00:00:07.470Z,101799.78
2022-12-03T00:00:57.034Z,101797.00
2022-12-03T00:01:43.485Z,101798.91
2022-12-03T00:02:30.009Z,101801.69
2022-12-03T00:03:16.759Z,101797.81
2022-12-03T00:04:03.551Z,101796.81
2022-12-03T00:04:50.648Z,101794.25
2022-12-03T00:05:37.717Z,101792.31
2022-12-03T00:06:25.619Z,101789.75
2022-12-03T00:07:13.056Z,101787.56
2022-12-03T00:07:59.626Z,101790.34
2022-12-03T00:08:46.064Z,101787.91
2022-12-03T00:09:32.685Z,101793.13
2022-12-03T00:10:19.733Z,101788.66
2022-12-03T00:11:06.363Z,101791.13
2022-12-03T00:11:52.816Z,101791.13
2022-12-03T00:12:39.428Z,101792.00
2022-12-03T00:13:26.063Z,101795.84
2022-12-03T00:14:12.596Z,101783.78
2022-12-03T00:14:59.298Z,101797.50
2022-12-03T00:15:47.631Z,101790.94
2022-12-03T00:16:34.143Z,101782.56
2022-12-03T00:17:21.138Z,101793.28
2022-12-03T00:18:07.670Z,101793.16
2022-12-03T00:18:54.202Z,101789.59
2022-12-03T00:19:40.862Z,101788.69
2022-12-03T00:20:27.308Z,101793.72
2022-12-03T00:21:13.916Z,101788.47
2022-12-03T00:22:00.483Z,101790.38
2022-12-03T00:22:47.366Z,101792.03
2022-12-03T00:23:40.155Z,101783.47
2022-12-03T00:24:28.451Z,101783.47
2022-12-03T00:25:15.169Z,101789.06
2022-12-03T00:26:01.802Z,101783.13
2022-12-03T00:26:48.990Z,101779.66
2022-12-03T00:27:35.591Z,101780.91
2022-12-03T00:28:22.003Z,101778.91
2022-12-03T00:29:08.566Z,101773.34
2022-12-03T00:29:55.088Z,101783.50
2022-12-03T00:30:41.598Z,101777.78
2022-12-03T00:31:28.175Z,101777.34
2022-12-03T00:32:14.695Z,101773.78
2022-12-03T00:33:01.168Z,101782.94
2022-12-03T00:33:48.253Z,101769.75
2022-12-03T00:34:34.768Z,101777.03
2022-12-03T00:35:21.429Z,101780.59
2022-12-03T00:36:08.572Z,101772.66
2022-12-03T00:36:55.021Z,101768.66
2022-12-03T00:37:41.489Z,101764.19
2022-12-03T00:38:28.002Z,101769.22
2022-12-03T00:39:14.482Z,101772.88
2022-12-03T00:40:02.470Z,101770.44
2022-12-03T00:40:48.998Z,101774.56
2022-12-03T00:41:35.448Z,101775.13
2022-12-03T00:42:21.956Z,101769.53
2022-12-03T00:43:08.719Z,101773.91
2022-12-03T00:43:58.045Z,101765.19
2022-12-03T00:44:44.719Z,101775.78
2022-12-03T00:45:31.404Z,101775.69
2022-12-03T00:46:21.382Z,101773.22
2022-12-03T00:47:09.505Z,101768.22
2022-12-03T00:47:56.223Z,101776.34
2022-12-03T00:48:42.650Z,101770.53
2022-12-03T00:49:29.082Z,101770.31
2022-12-03T00:50:15.568Z,101769.44
2022-12-03T00:51:02.113Z,101766.97
2022-12-03T00:51:48.664Z,101776.47
2022-12-03T00:52:35.102Z,101773.81
2022-12-03T00:53:21.810Z,101770.44
2022-12-03T00:54:08.463Z,101774.03
2022-12-03T00:54:55.151Z,101773.56
2022-12-03T00:55:41.921Z,101770.78
2022-12-03T00:56:28.409Z,101763.84
2022-12-03T00:57:15.022Z,101768.31
2022-12-03T00:58:01.577Z,101769.41
2022-12-03T00:58:48.014Z,101761.94
2022-12-03T00:59:34.713Z,101767.19
2022-12-03T01:00:24.518Z,101772.44
2022-12-03T01:01:11.207Z,101768.75
2022-12-03T01:01:58.475Z,101762.94
2022-12-03T01:02:44.935Z,101766.50
2022-12-03T01:03:31.592Z,101765.41
2022-12-03T01:04:18.246Z,101770.22
2022-12-03T01:05:05.823Z,101771.69
2022-12-03T01:05:52.429Z,101766.63
2022-12-03T01:06:39.965Z,101766.63
2022-12-03T01:07:26.589Z,101768.19
2022-12-03T01:08:13.098Z,101765.97
2022-12-03T01:08:59.756Z,101765.19
2022-12-03T01:09:46.458Z,101764.50
2022-12-03T01:10:33.076Z,101762.84
2022-12-03T01:11:38.328Z,101769.88
2022-12-03T01:12:24.794Z,101767.53
2022-12-03T01:13:11.412Z,101766.19
2022-12-03T01:13:58.056Z,101767.84
2022-12-03T01:14:44.736Z,101769.00
2022-12-03T01:15:31.232Z,101763.72
2022-12-03T01:16:17.776Z,101765.50
2022-12-03T01:17:04.626Z,101765.19
2022-12-03T01:17:51.031Z,101772.78
2022-12-03T01:18:37.517Z,101775.13
2022-12-03T01:19:24.365Z,101766.53
2022-12-03T01:20:11.848Z,101768.19
2022-12-03T01:20:58.254Z,101771.34
2022-12-03T01:21:49.994Z,101773.13
2022-12-03T01:22:37.253Z,101762.06
2022-12-03T01:23:23.972Z,101768.97
2022-12-03T01:24:11.052Z,101770.91
2022-12-03T01:24:57.746Z,101772.69
2022-12-03T01:25:44.202Z,101767.41
2022-12-03T01:26:31.031Z,101775.69
2022-12-03T01:27:17.612Z,101778.69
2022-12-03T01:28:04.087Z,101773.78
2022-12-03T01:28:50.755Z,101773.34
2022-12-03T01:29:37.479Z,101777.13
2022-12-03T01:30:23.964Z,101774.69
2022-12-03T01:31:29.194Z,101772.78
2022-12-03T01:32:21.955Z,101778.34
2022-12-03T01:33:08.581Z,101776.00
2022-12-03T01:33:55.745Z,101767.97
2022-12-03T01:34:44.054Z,101771.78
2022-12-03T01:35:30.650Z,101771.00
2022-12-03T01:36:17.277Z,101774.13
2022-12-03T01:37:04.144Z,101766.19
2022-12-03T01:37:50.533Z,101773.91
2022-12-03T01:38:37.012Z,101772.22
2022-12-03T01:39:23.596Z,101774.22
2022-12-03T01:40:16.139Z,101776.47
2022-12-03T01:41:05.944Z,101775.47
2022-12-03T01:41:55.682Z,101779.25
2022-12-03T01:42:42.680Z,101769.63
2022-12-03T01:43:29.273Z,101772.13
2022-12-03T01:44:23.950Z,101779.69
2022-12-03T01:45:23.545Z,101778.34
2022-12-03T01:46:21.147Z,101778.47
2022-12-03T01:47:16.186Z,101771.78
2022-12-03T01:48:02.740Z,101778.91
2022-12-03T01:48:53.608Z,101778.13
2022-12-03T01:50:02.687Z,101776.47
2022-12-03T01:50:49.209Z,101776.78
2022-12-03T01:51:36.176Z,101770.88
2022-12-03T01:52:31.392Z,101773.44
2022-12-03T01:53:19.260Z,101782.41
2022-12-03T01:54:05.820Z,101771.66
2022-12-03T01:54:56.895Z,101775.91
2022-12-03T01:55:48.303Z,101774.22
2022-12-03T01:56:35.247Z,101785.41
2022-12-03T01:57:26.528Z,101774.13
2022-12-03T01:58:15.629Z,101782.59
2022-12-03T01:59:02.318Z,101773.91
2022-12-03T01:59:50.259Z,101779.69
2022-12-03T02:00:36.761Z,101776.91
2022-12-03T02:01:23.466Z,101776.25
2022-12-03T02:02:22.010Z,101778.91
2022-12-03T02:03:17.170Z,101776.91
2022-12-03T02:04:03.787Z,101778.25
2022-12-03T02:04:53.486Z,101775.69
2022-12-03T02:05:40.349Z,101780.03
2022-12-03T02:06:30.345Z,101776.78
2022-12-03T02:07:32.630Z,101775.91
2022-12-03T02:08:36.635Z,101772.34
2022-12-03T02:09:23.285Z,101774.47
2022-12-03T02:10:13.809Z,101771.56
2022-12-03T02:11:13.097Z,101775.47
2022-12-03T02:11:59.642Z,101771.22
2022-12-03T02:12:54.634Z,101772.13
2022-12-03T02:13:43.056Z,101771.91
2022-12-03T02:14:29.704Z,101765.84
2022-12-03T02:15:16.305Z,101769.41
2022-12-03T02:16:04.694Z,101769.63
2022-12-03T02:16:51.272Z,101772.44
2022-12-03T02:17:39.025Z,101769.78
2022-12-03T02:18:26.001Z,101773.91
2022-12-03T02:19:26.425Z,101774.34
2022-12-03T02:20:14.503Z,101770.66
2022-12-03T02:21:09.860Z,101774.03
2022-12-03T02:22:19.457Z,101778.03
2022-12-03T02:23:18.566Z,101771.78
2022-12-03T02:24:39.155Z,101775.78
2022-12-03T02:25:32.541Z,101768.75
2022-12-03T02:26:19.337Z,101773.88
2022-12-03T02:27:06.397Z,101775.56
2022-12-03T02:27:56.297Z,101771.44
2022-12-03T02:28:42.979Z,101773.47
2022-12-03T02:29:30.902Z,101773.59
2022-12-03T02:30:21.130Z,101768.44
2022-12-03T02:31:07.863Z,101761.53
2022-12-03T02:31:54.582Z,101764.09
2022-12-03T02:32:41.435Z,101760.41
2022-12-03T02:33:28.784Z,101761.41
2022-12-03T02:34:36.902Z,101768.19
2022-12-03T02:35:26.722Z,101762.06
2022-12-03T02:36:13.443Z,101763.63
2022-12-03T02:37:00.915Z,101759.41
2022-12-03T02:37:51.609Z,101761.06
2022-12-03T02:38:39.268Z,101759.47
2022-12-03T02:39:26.134Z,101758.84
2022-12-03T02:40:18.625Z,101761.53
2022-12-03T02:41:31.810Z,101767.31
2022-12-03T02:42:35.998Z,101757.69
2022-12-03T02:43:23.650Z,101759.25
2022-12-03T02:44:10.866Z,101763.41
2022-12-03T02:45:05.506Z,101762.75
2022-12-03T02:45:56.334Z,101761.84
2022-12-03T02:46:43.216Z,101763.53
2022-12-03T02:47:31.271Z,101761.06
2022-12-03T02:48:34.481Z,101765.19
2022-12-03T02:49:21.152Z,101766.19
2022-12-03T02:50:11.539Z,101759.25
2022-12-03T02:51:06.171Z,101763.63
2022-12-03T02:51:53.039Z,101756.81
2022-12-03T02:52:43.771Z,101757.81
2022-12-03T02:53:42.533Z,101759.84
2022-12-03T02:54:29.194Z,101754.81
2022-12-03T02:55:18.167Z,101765.41
2022-12-03T02:56:05.821Z,101757.72
2022-12-03T02:56:52.477Z,101755.81
2022-12-03T02:57:39.765Z,101758.50
2022-12-03T02:58:30.763Z,101758.41
2022-12-03T02:59:17.631Z,101756.84
2022-12-03T03:00:08.387Z,101760.28
2022-12-03T03:00:56.251Z,101752.47
2022-12-03T03:01:43.943Z,101757.06
2022-12-03T03:02:31.163Z,101759.50
2022-12-03T03:03:19.583Z,101755.94
2022-12-03T03:04:06.942Z,101754.91
2022-12-03T03:04:54.808Z,101754.56
2022-12-03T03:05:41.823Z,101751.44
2022-12-03T03:06:29.115Z,101748.66
2022-12-03T03:07:16.621Z,101752.69
2022-12-03T03:08:05.393Z,101750.91
2022-12-03T03:08:52.370Z,101742.44
2022-12-03T03:09:39.252Z,101745.00
2022-12-03T03:10:27.998Z,101750.91
2022-12-03T03:11:14.588Z,101743.22
2022-12-03T03:12:01.234Z,101749.00
2022-12-03T03:12:48.309Z,101745.44
2022-12-03T03:13:36.458Z,101748.13
2022-12-03T03:14:23.209Z,101745.56
2022-12-03T03:15:11.591Z,101745.78
2022-12-03T03:15:58.631Z,101750.91
2022-12-03T03:16:45.295Z,101747.44
2022-12-03T03:17:32.357Z,101752.47
2022-12-03T03:18:19.048Z,101745.44
2022-12-03T03:19:05.835Z,101745.34
2022-12-03T03:19:52.273Z,101746.78
2022-12-03T03:20:40.161Z,101748.78
2022-12-03T03:21:27.027Z,101744.66
2022-12-03T03:22:13.591Z,101747.91
2022-12-03T03:23:11.913Z,101749.91
2022-12-03T03:23:58.406Z,101742.78
2022-12-03T03:24:45.063Z,101740.50
2022-12-03T03:25:32.097Z,101736.63
2022-12-03T03:26:19.424Z,101743.31
2022-12-03T03:27:10.520Z,101748.34
2022-12-03T03:27:57.332Z,101744.97
2022-12-03T03:28:49.197Z,101749.13
2022-12-03T03:29:36.519Z,101749.66
2022-12-03T03:30:23.253Z,101750.34
2022-12-03T03:31:14.780Z,101748.22
2022-12-03T03:32:03.254Z,101752.22
2022-12-03T03:32:50.260Z,101748.09
2022-12-03T03:33:41.496Z,101746.88
2022-12-03T03:34:30.277Z,101751.09
2022-12-03T03:35:17.904Z,101748.53
2022-12-03T03:36:06.570Z,101747.78
2022-12-03T03:36:53.314Z,101748.66
2022-12-03T03:37:41.394Z,101746.88
2022-12-03T03:38:30.368Z,101752.66
2022-12-03T03:39:16.975Z,101744.75
2022-12-03T03:40:04.241Z,101749.78
2022-12-03T03:40:52.977Z,101748.00
2022-12-03T03:41:42.078Z,101745.44
2022-12-03T03:42:28.979Z,101743.50
2022-12-03T03:43:15.565Z,101746.84
2022-12-03T03:44:05.913Z,101754.47
2022-12-03T03:44:52.996Z,101750.97
2022-12-03T03:45:40.031Z,101753.44
2022-12-03T03:46:28.815Z,101743.97
2022-12-03T03:47:16.309Z,101745.63
2022-12-03T03:48:03.653Z,101749.09
2022-12-03T03:48:52.024Z,101741.19
2022-12-03T03:49:38.878Z,101743.97
2022-12-03T03:50:29.749Z,101743.84
2022-12-03T03:51:19.354Z,101741.28
2022-12-03T03:52:06.139Z,101737.16
2022-12-03T03:52:53.601Z,101745.75
2022-12-03T03:53:43.150Z,101745.84
2022-12-03T03:54:30.519Z,101743.28
2022-12-03T03:55:18.959Z,101738.16
2022-12-03T03:56:06.497Z,101741.63
2022-12-03T03:56:53.341Z,101733.94
2022-12-03T03:57:40.416Z,101737.38
2022-12-03T03:58:27.031Z,101738.28
2022-12-03T03:59:14.397Z,101734.94
2022-12-03T04:00:01.111Z,101742.72
2022-12-03T04:00:51.883Z,101741.94
2022-12-03T04:01:39.149Z,101735.03
2022-12-03T04:02:28.185Z,101742.72
2022-12-03T04:03:14.717Z,101730.03
2022-12-03T04:04:04.027Z,101735.25
2022-12-03T04:04:51.866Z,101735.25
2022-12-03T04:05:39.880Z,101729.34
2022-12-03T04:06:28.078Z,101737.28
2022-12-03T04:07:16.266Z,101738.28
2022-12-03T04:08:02.956Z,101735.69
2022-12-03T04:08:49.659Z,101733.03
2022-12-03T04:09:37.388Z,101740.84
2022-12-03T04:10:42.550Z,101739.97
2022-12-03T04:11:47.732Z,101736.38
2022-12-03T04:12:52.828Z,101737.28
2022-12-03T04:13:39.300Z,101739.97
2022-12-03T04:14:25.884Z,101733.28
2022-12-03T04:15:12.308Z,101735.97
2022-12-03T04:15:58.780Z,101734.63
2022-12-03T04:16:45.340Z,101738.19
2022-12-03T04:17:31.845Z,101732.94
2022-12-03T04:18:36.801Z,101734.63
2022-12-03T04:19:23.409Z,101732.06
2022-12-03T04:20:10.448Z,101730.13
2022-12-03T04:21:16.845Z,101734.41
2022-12-03T04:22:21.800Z,101725.91
2022-12-03T04:23:08.566Z,101732.63
2022-12-03T04:23:55.093Z,101729.91
2022-12-03T04:24:41.548Z,101728.91
2022-12-03T04:26:00.429Z,101727.91
2022-12-03T04:27:05.479Z,101730.25
2022-12-03T04:28:10.811Z,101728.34
2022-12-03T04:28:57.385Z,101729.91
2022-12-03T04:29:43.832Z,101729.03
2022-12-03T04:30:30.459Z,101728.81
2022-12-03T04:31:35.824Z,101726.00
2022-12-03T04:32:40.783Z,101729.34
2022-12-03T04:33:45.942Z,101729.13
2022-12-03T04:34:51.442Z,101723.88
2022-12-03T04:35:45.065Z,101725.66
2022-12-03T04:36:32.073Z,101719.53
2022-12-03T04:37:20.339Z,101724.53
2022-12-03T04:38:06.921Z,101722.63
2022-12-03T04:38:53.397Z,101721.72
2022-12-03T04:39:41.109Z,101724.31
2022-12-03T04:40:46.392Z,101726.88
2022-12-03T04:41:32.899Z,101724.19
2022-12-03T04:42:19.507Z,101726.00
2022-12-03T04:43:05.969Z,101723.41
2022-12-03T04:44:15.572Z,101723.41
2022-12-03T04:45:02.051Z,101719.94
2022-12-03T04:45:49.651Z,101719.16
2022-12-03T04:46:36.192Z,101718.28
2022-12-03T04:47:22.730Z,101716.38
2022-12-03T04:48:09.413Z,101718.16
2022-12-03T04:48:55.888Z,101715.59
2022-12-03T04:49:45.444Z,101713.94
2022-12-03T04:50:32.135Z,101718.16
2022-12-03T04:51:18.860Z,101722.50
2022-12-03T04:52:05.992Z,101709.81
2022-12-03T04:52:52.704Z,101714.16
2022-12-03T04:53:44.756Z,101714.94
2022-12-03T04:54:33.679Z,101711.59
2022-12-03T04:55:20.098Z,101712.47
2022-12-03T04:56:06.876Z,101712.47
2022-12-03T04:56:53.547Z,101718.66
2022-12-03T04:57:42.319Z,101718.66
2022-12-03T04:58:28.827Z,101715.03
2022-12-03T04:59:16.562Z,101715.03
2022-12-03T05:00:05.133Z,101713.38
2022-12-03T05:00:52.729Z,101715.03
2022-12-03T05:01:39.434Z,101719.28
2022-12-03T05:02:26.126Z,101713.25
2022-12-03T05:03:12.560Z,101720.19
2022-12-03T05:03:59.102Z,101715.94
2022-12-03T05:04:45.567Z,101710.81
2022-12-03T05:05:32.023Z,101713.25
2022-12-03T05:06:18.650Z,101719.41
2022-12-03T05:07:05.250Z,101716.72
2022-12-03T05:07:52.488Z,101716.81
2022-12-03T05:08:39.141Z,101716.72
2022-12-03T05:09:25.957Z,101709.03
2022-12-03T05:10:13.266Z,101717.59
2022-12-03T05:10:59.706Z,101715.94
2022-12-03T05:11:46.254Z,101717.59
2022-12-03T05:12:33.061Z,101709.03
2022-12-03T05:13:19.523Z,101715.03
2022-12-03T05:14:06.991Z,101719.41
2022-12-03T05:14:53.959Z,101715.03
2022-12-03T05:15:40.930Z,101715.94
2022-12-03T05:16:27.614Z,101711.59
2022-12-03T05:17:14.303Z,101710.81
2022-12-03T05:18:01.562Z,101713.38
2022-12-03T05:18:48.026Z,101716.72
2022-12-03T05:19:53.090Z,101712.47
2022-12-03T05:20:46.955Z,101715.94
2022-12-03T05:21:38.144Z,101709.13
2022-12-03T05:22:24.643Z,101716.09
2022-12-03T05:23:13.448Z,101716.09
2022-12-03T05:24:00.020Z,101712.59
2022-12-03T05:24:46.524Z,101713.63
2022-12-03T05:25:33.284Z,101705.81
2022-12-03T05:26:19.901Z,101711.69
2022-12-03T05:27:06.518Z,101708.47
2022-12-03T05:27:53.322Z,101707.59
2022-12-03T05:28:39.918Z,101709.25
2022-12-03T05:29:26.343Z,101715.31
2022-12-03T05:30:13.145Z,101715.41
2022-12-03T05:31:04.838Z,101704.25
2022-12-03T05:31:51.354Z,101714.63
2022-12-03T05:32:38.508Z,101699.91
2022-12-03T05:33:25.069Z,101712.75
2022-12-03T05:34:11.699Z,101711.94
2022-12-03T05:34:58.471Z,101707.69
2022-12-03T05:35:44.995Z,101706.81
2022-12-03T05:36:31.769Z,101705.13
2022-12-03T05:37:18.746Z,101707.16
2022-12-03T05:38:05.553Z,101713.28
2022-12-03T05:38:52.233Z,101707.50
2022-12-03T05:39:38.956Z,101705.72
2022-12-03T05:40:25.547Z,101709.06
2022-12-03T05:41:30.733Z,101701.22
2022-12-03T05:42:36.187Z,101703.00
2022-12-03T05:43:23.994Z,101704.56
2022-12-03T05:44:10.621Z,101702.00
2022-12-03T05:44:57.218Z,101710.50
2022-12-03T05:45:44.496Z,101706.13
2022-12-03T05:46:32.639Z,101701.00
2022-12-03T05:47:19.196Z,101706.03
2022-12-03T05:48:08.889Z,101707.03
2022-12-03T05:48:55.618Z,101701.13
2022-12-03T05:49:42.244Z,101704.47
2022-12-03T05:50:33.317Z,101706.03
2022-12-03T05:51:33.376Z,101704.34
2022-12-03T05:52:19.798Z,101703.56
2022-12-03T05:53:07.143Z,101701.13
2022-12-03T05:53:53.623Z,101694.22
2022-12-03T05:54:41.585Z,101697.56
2022-12-03T05:55:29.109Z,101697.44
2022-12-03T05:56:15.617Z,101706.13
2022-12-03T05:57:02.125Z,101699.56
2022-12-03T05:57:49.123Z,101704.94
2022-12-03T05:58:35.922Z,101702.81
2022-12-03T05:59:22.504Z,101701.34
2022-12-03T06:00:15.281Z,101697.78
2022-12-03T06:01:02.422Z,101700.34
2022-12-03T06:01:49.026Z,101698.56
2022-12-03T06:02:35.813Z,101702.91
2022-12-03T06:03:22.584Z,101702.03
2022-12-03T06:04:09.318Z,101701.13
2022-12-03T06:04:56.053Z,101699.56
2022-12-03T06:05:42.786Z,101697.78
2022-12-03T06:06:29.228Z,101701.13
2022-12-03T06:07:15.728Z,101704.59
2022-12-03T06:08:02.502Z,101703.81
2022-12-03T06:08:48.987Z,101701.13
2022-12-03T06:09:36.101Z,101703.47
2022-12-03T06:10:25.241Z,101704.38
2022-12-03T06:11:11.763Z,101700.69
2022-12-03T06:11:58.199Z,101696.09
2022-12-03T06:12:44.993Z,101701.22
2022-12-03T06:13:31.498Z,101696.88
2022-12-03T06:14:17.997Z,101707.03
2022-12-03T06:15:05.471Z,101706.03
2022-12-03T06:15:52.192Z,101702.69
2022-12-03T06:16:38.728Z,101703.47
2022-12-03T06:17:26.239Z,101700.78
2022-12-03T06:18:14.100Z,101690.31
2022-12-03T06:19:00.766Z,101704.69
2022-12-03T06:19:48.835Z,101694.28
2022-12-03T06:20:35.495Z,101695.06
2022-12-03T06:21:22.136Z,101698.56
2022-12-03T06:22:09.911Z,101699.34
2022-12-03T06:22:56.340Z,101700.22
2022-12-03T06:23:44.648Z,101699.34
2022-12-03T06:24:32.440Z,101701.75
2022-12-03T06:25:19.301Z,101698.31
2022-12-03T06:26:06.136Z,101697.41
2022-12-03T06:26:52.740Z,101698.09
2022-12-03T06:27:39.254Z,101697.97
2022-12-03T06:28:25.887Z,101697.66
2022-12-03T06:29:12.379Z,101706.78
2022-12-03T06:29:58.924Z,101703.06
2022-12-03T06:30:45.688Z,101710.53
2022-12-03T06:31:32.343Z,101701.75
2022-12-03T06:32:19.149Z,101704.84
2022-12-03T06:33:05.790Z,101702.72
2022-12-03T06:33:52.250Z,101707.59
2022-12-03T06:34:38.864Z,101699.44
2022-12-03T06:35:25.388Z,101701.00
2022-12-03T06:36:12.017Z,101702.44
2022-12-03T06:36:58.900Z,101704.75
2022-12-03T06:37:45.609Z,101703.09
2022-12-03T06:38:32.283Z,101702.88
2022-12-03T06:39:19.161Z,101699.53
2022-12-03T06:40:06.784Z,101712.22
2022-12-03T06:40:53.214Z,101708.00
2022-12-03T06:41:39.835Z,101704.91
2022-12-03T06:42:26.343Z,101701.41
2022-12-03T06:43:12.841Z,101700.53
2022-12-03T06:43:59.541Z,101704.91
2022-12-03T06:44:46.160Z,101707.47
2022-12-03T06:45:32.662Z,101702.34
2022-12-03T06:46:19.185Z,101708.47
2022-12-03T06:47:05.914Z,101705.78
2022-12-03T06:47:52.546Z,101704.22
2022-12-03T06:48:39.005Z,101703.44
2022-12-03T06:49:26.265Z,101701.78
2022-12-03T06:50:13.803Z,101704.34
2022-12-03T06:51:00.281Z,101705.34
2022-12-03T06:51:46.966Z,101701.88
2022-12-03T06:52:33.466Z,101706.22
2022-12-03T06:53:20.155Z,101703.03
2022-12-03T06:54:07.118Z,101703.91
2022-12-03T06:54:53.849Z,101705.94
2022-12-03T06:55:40.597Z,101707.72
2022-12-03T06:56:32.793Z,101704.63
2022-12-03T06:57:22.798Z,101704.72
2022-12-03T06:58:09.404Z,101703.28
2022-12-03T06:58:55.894Z,101705.19
2022-12-03T06:59:42.459Z,101706.09
2022-12-03T07:00:28.997Z,101700.06
2022-12-03T07:01:15.764Z,101704.41
2022-12-03T07:02:02.279Z,101699.28
2022-12-03T07:02:48.973Z,101703.75
2022-12-03T07:03:35.505Z,101701.97
2022-12-03T07:04:22.274Z,101694.28
2022-12-03T07:05:09.689Z,101701.28
2022-12-03T07:05:56.576Z,101697.06
2022-12-03T07:06:43.924Z,101695.50
2022-12-03T07:07:30.537Z,101698.06
2022-12-03T07:08:17.233Z,101697.28
2022-12-03T07:09:04.035Z,101692.28
2022-12-03T07:09:51.120Z,101703.56
2022-12-03T07:10:37.608Z,101703.56
2022-12-03T07:11:32.798Z,101699.31
2022-12-03T07:12:19.434Z,101700.22
2022-12-03T07:13:06.157Z,101698.53
2022-12-03T07:13:53.064Z,101705.44
2022-12-03T07:14:39.673Z,101698.66
2022-12-03T07:15:26.443Z,101703.00
2022-12-03T07:16:14.700Z,101698.09
2022-12-03T07:17:01.173Z,101705.00
2022-12-03T07:17:47.888Z,101702.53
2022-12-03T07:18:35.145Z,101697.31
2022-12-03T07:19:21.656Z,101692.97
2022-12-03T07:20:08.944Z,101698.75
2022-12-03T07:20:55.559Z,101698.75
2022-12-03T07:21:43.113Z,101698.75
2022-12-03T07:22:29.905Z,101700.31
2022-12-03T07:23:16.385Z,101699.31
2022-12-03T07:24:03.101Z,101706.34
2022-12-03T07:24:50.155Z,101709.69
2022-12-03T07:25:36.824Z,101707.13
2022-12-03T07:26:23.550Z,101699.44
2022-12-03T07:27:10.356Z,101702.78
2022-12-03T07:27:56.977Z,101707.00
2022-12-03T07:28:43.395Z,101701.09
2022-12-03T07:29:30.455Z,101706.34
2022-12-03T07:30:17.689Z,101701.22
2022-12-03T07:31:05.563Z,101703.09
2022-12-03T07:31:52.192Z,101699.66
2022-12-03T07:32:38.820Z,101700.66
2022-12-03T07:33:25.277Z,101704.25
2022-12-03T07:34:11.946Z,101706.91
2022-12-03T07:34:58.488Z,101703.56
2022-12-03T07:35:45.151Z,101701.75
2022-12-03T07:36:31.743Z,101704.47
2022-12-03T07:37:22.810Z,101699.34
2022-12-03T07:38:10.246Z,101696.78
2022-12-03T07:38:56.667Z,101699.44
2022-12-03T07:39:43.118Z,101702.91
2022-12-03T07:40:29.539Z,101700.56
2022-12-03T07:41:16.198Z,101710.81
2022-12-03T07:42:02.816Z,101703.13
2022-12-03T07:42:49.590Z,101705.69
2022-12-03T07:43:36.054Z,101700.56
2022-12-03T07:44:23.230Z,101703.13
2022-12-03T07:45:10.477Z,101701.44
2022-12-03T07:45:57.171Z,101706.56
2022-12-03T07:46:43.858Z,101703.91
2022-12-03T07:47:30.427Z,101705.81
2022-12-03T07:48:17.065Z,101706.69
2022-12-03T07:49:03.660Z,101708.59
2022-12-03T07:49:50.609Z,101702.94
2022-12-03T07:50:37.131Z,101706.38
2022-12-03T07:51:27.479Z,101702.38
2022-12-03T07:52:18.540Z,101702.47
2022-12-03T07:53:05.419Z,101704.16
2022-12-03T07:53:51.859Z,101703.25
2022-12-03T07:54:38.544Z,101709.28
2022-12-03T07:55:25.904Z,101702.47
2022-12-03T07:56:12.441Z,101702.81
2022-12-03T07:57:01.596Z,101709.81
2022-12-03T07:57:48.637Z,101705.69
2022-12-03T07:58:35.154Z,101707.59
2022-12-03T07:59:21.858Z,101700.69
2022-12-03T08:00:08.837Z,101709.16
2022-12-03T08:01:03.370Z,101710.16
2022-12-03T08:01:50.146Z,101699.69
2022-12-03T08:02:36.652Z,101697.78
2022-12-03T08:03:24.146Z,101705.38
2022-12-03T08:04:12.978Z,101704.38
2022-12-03T08:04:59.407Z,101701.81
2022-12-03T08:05:47.634Z,101699.25
2022-12-03T08:06:34.298Z,101704.25
2022-12-03T08:07:20.777Z,101703.47
2022-12-03T08:08:07.298Z,101707.72
2022-12-03T08:08:53.776Z,101710.28
2022-12-03T08:09:41.620Z,101708.59
2022-12-03T08:10:28.298Z,101705.25
2022-12-03T08:11:15.144Z,101707.81
2022-12-03T08:12:17.234Z,101706.25
2022-12-03T08:13:13.081Z,101708.94
2022-12-03T08:13:59.734Z,101705.38
2022-12-03T08:14:46.299Z,101702.47
2022-12-03T08:15:39.123Z,101707.72
2022-12-03T08:16:26.100Z,101706.72
2022-12-03T08:17:15.217Z,101705.25
2022-12-03T08:18:12.895Z,101701.34
2022-12-03T08:18:59.856Z,101700.22
2022-12-03T08:19:47.329Z,101702.56
2022-12-03T08:20:38.821Z,101702.34
2022-12-03T08:21:35.206Z,101707.72
2022-12-03T08:22:22.212Z,101709.97
2022-12-03T08:23:17.745Z,101706.38
2022-12-03T08:24:19.157Z,101709.75
2022-12-03T08:25:21.381Z,101713.19
2022-12-03T08:26:25.724Z,101718.88
2022-12-03T08:27:19.103Z,101709.38
2022-12-03T08:28:16.103Z,101713.75
2022-12-03T08:29:05.279Z,101711.16
2022-12-03T08:30:03.560Z,101714.53
2022-12-03T08:31:08.499Z,101713.66
2022-12-03T08:31:57.186Z,101714.44
2022-12-03T08:32:44.383Z,101712.09
2022-12-03T08:33:36.816Z,101712.88
2022-12-03T08:34:27.924Z,101710.28
2022-12-03T08:35:27.413Z,101711.75
2022-12-03T08:36:24.864Z,101715.97
2022-12-03T08:37:17.744Z,101713.53
2022-12-03T08:38:12.901Z,101718.31
2022-12-03T08:39:14.513Z,101711.72
2022-12-03T08:40:01.049Z,101715.31
2022-12-03T08:40:50.991Z,101716.63
2022-12-03T08:42:04.553Z,101711.06
2022-12-03T08:42:52.572Z,101707.00
2022-12-03T08:43:42.654Z,101713.28
2022-12-03T08:44:37.004Z,101708.22
2022-12-03T08:45:29.211Z,101707.44
2022-12-03T08:46:19.327Z,101711.69
2022-12-03T08:47:08.717Z,101707.44
2022-12-03T08:47:56.909Z,101704.22
2022-12-03T08:48:48.644Z,101705.34
2022-12-03T08:49:37.260Z,101707.44
2022-12-03T08:50:29.513Z,101710.84
2022-12-03T08:51:27.084Z,101714.19
2022-12-03T08:52:18.725Z,101710.09
2022-12-03T08:53:23.408Z,101710.97
2022-12-03T08:54:19.434Z,101717.09
2022-12-03T08:55:38.337Z,101714.31
2022-12-03T08:56:28.787Z,101720.13
2022-12-03T08:57:26.838Z,101708.75
2022-12-03T08:58:33.342Z,101716.13
2022-12-03T08:59:29.460Z,101713.78
2022-12-03T09:00:23.461Z,101715.00
2022-12-03T09:01:09.957Z,101714.53
2022-12-03T09:01:59.220Z,101712.19
2022-12-03T09:02:55.325Z,101708.84
2022-12-03T09:03:54.425Z,101704.25
2022-12-03T09:04:45.860Z,101710.97
2022-12-03T09:05:32.632Z,101706.03
2022-12-03T09:06:19.136Z,101709.75
2022-12-03T09:07:06.783Z,101710.75
2022-12-03T09:07:53.280Z,101700.47
2022-12-03T09:08:39.805Z,101706.59
2022-12-03T09:09:26.883Z,101700.53
2022-12-03T09:10:13.625Z,101700.47
2022-12-03T09:11:01.142Z,101709.75
2022-12-03T09:11:47.664Z,101707.16
2022-12-03T09:12:34.145Z,101703.03
2022-12-03T09:13:20.657Z,101706.25
2022-12-03T09:14:07.419Z,101704.59
2022-12-03T09:14:54.212Z,101699.34
2022-12-03T09:15:40.868Z,101695.78
2022-12-03T09:16:27.999Z,101703.38
2022-12-03T09:17:15.708Z,101705.16
2022-12-03T09:18:02.170Z,101699.34
2022-12-03T09:18:48.718Z,101705.97